Time;durP1;ratioP1;P1;durP2;ratioP2;P2;SDS_P1;SDS_P2;PMS_P1;PMS_P2;Temp;Humidity;BMP_temperature;BMP_pressure;BME280_temperature;BME280_humidity;BME280_pressure;Samples;Min_cycle;Max_cycle;Signal;HPM_P1;HPM_P2
2022/01/11 00:00:44;;;;;;;48.45;25.92;;;1.20;99.90;;;;;;5090950;28;20043;-71
2022/01/11 00:03:10;;;;;;;54.35;28.25;;;1.20;99.90;;;;;;5090097;28;20461;-70
2022/01/11 00:05:53;;;;;;;59.33;29.35;;;1.30;99.90;;;;;;5090359;28;20028;-70
2022/01/11 00:08:28;;;;;;;57.80;27.48;;;1.30;99.90;;;;;;5088540;28;20020;-70
2022/01/11 00:11:02;;;;;;;56.58;28.80;;;1.30;99.90;;;;;;5088095;28;20030;-70
2022/01/11 00:13:28;;;;;;;59.50;29.70;;;1.30;99.90;;;;;;5089949;28;20469;-70
2022/01/11 00:15:54;;;;;;;54.25;25.92;;;1.30;99.90;;;;;;5090296;28;20031;-71
2022/01/11 00:18:20;;;;;;;55.38;28.77;;;1.30;99.90;;;;;;5089845;28;20073;-71
2022/01/11 00:20:46;;;;;;;64.28;28.73;;;1.30;99.90;;;;;;5090337;28;20056;-70
2022/01/11 00:25:43;;;;;;;57.97;26.95;;;1.30;99.90;;;;;;5090341;28;20032;-70
2022/01/11 00:28:11;;;;;;;53.42;27.13;;;1.30;99.90;;;;;;5089973;28;20036;-70
2022/01/11 00:30:39;;;;;;;60.45;30.33;;;1.30;99.90;;;;;;5090267;28;20099;-70
2022/01/11 00:33:10;;;;;;;56.38;29.20;;;1.40;99.90;;;;;;5089049;28;20042;-70
2022/01/11 00:35:41;;;;;;;60.03;28.55;;;1.40;99.90;;;;;;5072081;28;20453;-70
2022/01/11 00:38:09;;;;;;;54.55;27.60;;;1.40;99.90;;;;;;5089689;28;20477;-70
2022/01/11 00:40:35;;;;;;;57.92;27.98;;;1.40;99.90;;;;;;5072102;28;20036;-70
2022/01/11 00:43:02;;;;;;;55.28;29.00;;;1.40;99.90;;;;;;5090301;28;20369;-70
2022/01/11 00:45:28;;;;;;;55.55;28.40;;;1.40;99.90;;;;;;5089324;28;20031;-70
2022/01/11 00:47:57;;;;;;;58.10;28.92;;;1.40;99.90;;;;;;5089730;28;20052;-70
2022/01/11 00:50:24;;;;;;;52.47;28.73;;;1.40;99.90;;;;;;5071039;28;20587;-70
2022/01/11 00:52:50;;;;;;;58.08;28.05;;;1.40;99.90;;;;;;5091331;28;20057;-71
2022/01/11 00:55:16;;;;;;;53.50;27.65;;;1.40;99.90;;;;;;5090145;28;20364;-71
2022/01/11 00:57:42;;;;;;;56.65;27.08;;;1.40;99.90;;;;;;5090815;28;20408;-70
2022/01/11 01:00:11;;;;;;;54.40;29.00;;;1.30;99.90;;;;;;5091632;28;20032;-71
2022/01/11 01:02:38;;;;;;;61.60;29.05;;;1.30;99.90;;;;;;5091572;28;20028;-70
2022/01/11 01:05:05;;;;;;;58.80;28.48;;;1.30;99.90;;;;;;5091221;28;20077;-71
2022/01/11 01:07:30;;;;;;;57.90;28.63;;;1.30;99.90;;;;;;5090609;28;20031;-71
2022/01/11 01:10:03;;;;;;;57.63;29.00;;;1.40;99.90;;;;;;5091322;28;20032;-70
2022/01/11 01:12:29;;;;;;;54.78;27.67;;;1.40;99.90;;;;;;5090986;28;20036;-71
2022/01/11 01:14:55;;;;;;;61.78;28.98;;;1.40;99.90;;;;;;5091270;28;20500;-70
2022/01/11 01:17:21;;;;;;;56.78;28.88;;;1.40;99.90;;;;;;5090865;28;20020;-74
2022/01/11 01:19:47;;;;;;;55.45;28.38;;;1.40;99.90;;;;;;5090948;28;20093;-71
2022/01/11 01:22:12;;;;;;;58.33;27.80;;;1.50;99.90;;;;;;5090282;28;20477;-70
2022/01/11 01:24:38;;;;;;;51.47;27.88;;;1.50;99.90;;;;;;5091265;28;20040;-71
2022/01/11 01:27:04;;;;;;;68.88;29.35;;;1.50;99.90;;;;;;5093574;28;20035;-70
2022/01/11 01:29:30;;;;;;;62.03;28.95;;;1.50;99.90;;;;;;5094562;28;20031;-71
2022/01/11 01:31:56;;;;;;;59.47;27.77;;;1.40;99.90;;;;;;5086779;28;20480;-70
2022/01/11 01:34:23;;;;;;;58.28;28.38;;;1.40;99.90;;;;;;5087592;28;20056;-70
2022/01/11 01:36:49;;;;;;;56.95;28.58;;;1.40;99.90;;;;;;5094803;28;20027;-71
2022/01/11 01:39:15;;;;;;;58.20;29.48;;;1.30;99.90;;;;;;5093251;28;20095;-70
2022/01/11 01:41:44;;;;;;;63.92;30.20;;;1.30;99.90;;;;;;5076472;28;20446;-71
2022/01/11 01:44:10;;;;;;;58.40;27.83;;;1.30;99.90;;;;;;5094252;28;20554;-70
2022/01/11 01:46:36;;;;;;;58.30;28.98;;;1.30;99.90;;;;;;5094712;28;20262;-71
2022/01/11 01:49:03;;;;;;;58.08;29.20;;;1.30;99.90;;;;;;5093972;28;20074;-71
2022/01/11 01:51:30;;;;;;;55.70;28.90;;;1.30;99.90;;;;;;5094374;28;20069;-70
2022/01/11 01:53:56;;;;;;;55.40;29.17;;;1.30;99.90;;;;;;5094709;28;20158;-71
2022/01/11 01:56:23;;;;;;;57.63;28.55;;;1.30;99.90;;;;;;5093883;28;20392;-71
2022/01/11 01:58:50;;;;;;;57.70;28.30;;;1.30;99.90;;;;;;5094544;28;20024;-71
2022/01/11 02:01:16;;;;;;;54.08;29.15;;;1.30;99.90;;;;;;5094936;28;20077;-71
2022/01/11 02:03:43;;;;;;;52.85;27.63;;;1.30;99.90;;;;;;5095308;28;20095;-71
2022/01/11 02:06:12;;;;;;;49.92;27.30;;;1.20;99.90;;;;;;5094357;28;20036;-71
2022/01/11 02:08:39;;;;;;;57.08;28.10;;;1.30;99.90;;;;;;5093990;28;20388;-71
2022/01/11 02:11:06;;;;;;;56.35;30.45;;;1.20;99.90;;;;;;5093731;28;20056;-71
2022/01/11 02:13:32;;;;;;;53.10;29.10;;;1.20;99.90;;;;;;5093572;28;20852;-71
2022/01/11 02:15:59;;;;;;;53.25;28.58;;;1.20;99.90;;;;;;5094541;28;20019;-71
2022/01/11 02:18:27;;;;;;;60.40;29.58;;;1.20;99.90;;;;;;5094014;28;20123;-71
2022/01/11 02:20:58;;;;;;;58.08;29.58;;;1.20;99.90;;;;;;5094162;28;20473;-71
2022/01/11 02:23:28;;;;;;;58.88;28.60;;;1.30;99.90;;;;;;5093597;28;20043;-71
2022/01/11 02:25:55;;;;;;;55.00;29.00;;;1.30;99.90;;;;;;5094174;28;20016;-71
2022/01/11 02:28:22;;;;;;;59.33;29.05;;;1.30;99.90;;;;;;5093597;28;20036;-71
2022/01/11 02:30:49;;;;;;;51.83;26.38;;;1.20;99.90;;;;;;5093815;28;20430;-71
2022/01/11 02:33:33;;;;;;;52.30;26.75;;;1.30;99.90;;;;;;5078130;28;20073;-71
2022/01/11 02:36:00;;;;;;;58.72;29.48;;;1.30;99.90;;;;;;5093849;28;20107;-71
2022/01/11 02:38:26;;;;;;;52.22;29.55;;;1.30;99.90;;;;;;5092612;28;20030;-71
2022/01/11 02:40:51;;;;;;;54.40;28.10;;;1.30;99.90;;;;;;5093623;28;20028;-71
2022/01/11 02:43:17;;;;;;;59.13;30.15;;;1.20;99.90;;;;;;5093279;28;20075;-71
2022/01/11 02:45:43;;;;;;;58.83;27.92;;;1.20;99.90;;;;;;5093887;28;20028;-71
2022/01/11 02:48:09;;;;;;;56.20;28.55;;;1.20;99.90;;;;;;5092751;28;20048;-71
2022/01/11 02:50:34;;;;;;;58.25;30.95;;;1.20;99.90;;;;;;5092955;28;20040;-71
2022/01/11 02:53:00;;;;;;;63.58;31.13;;;1.20;99.90;;;;;;5093481;28;20178;-71
2022/01/11 02:55:26;;;;;;;57.40;29.67;;;1.30;99.90;;;;;;5092931;28;20093;-71
2022/01/11 02:57:52;;;;;;;59.45;28.52;;;1.20;99.90;;;;;;5093092;28;20389;-71
2022/01/11 03:00:20;;;;;;;54.30;28.20;;;1.20;99.90;;;;;;5092165;28;20031;-71
2022/01/11 03:02:46;;;;;;;59.28;28.83;;;1.20;99.90;;;;;;5093389;28;20031;-71
2022/01/11 03:05:13;;;;;;;55.35;29.77;;;1.20;99.90;;;;;;5092797;28;20526;-71
2022/01/11 03:07:40;;;;;;;70.57;30.13;;;1.20;99.90;;;;;;5093110;28;20024;-71
2022/01/11 03:10:32;;;;;;;56.85;29.48;;;1.20;99.90;;;;;;5092119;28;20063;-70
2022/01/11 03:13:00;;;;;;;58.42;29.85;;;1.20;99.90;;;;;;5092845;28;20032;-71
2022/01/11 03:15:26;;;;;;;60.30;29.88;;;1.20;99.90;;;;;;5092487;28;20066;-71
2022/01/11 03:17:52;;;;;;;61.70;29.77;;;1.20;99.90;;;;;;5092301;28;20465;-71
2022/01/11 03:20:18;;;;;;;63.55;30.52;;;1.20;99.90;;;;;;5090955;28;20121;-70
2022/01/11 03:22:43;;;;;;;60.92;29.58;;;1.20;99.90;;;;;;5092848;28;20028;-71
2022/01/11 03:25:10;;;;;;;56.53;30.33;;;1.20;99.90;;;;;;5091841;28;20024;-71
2022/01/11 03:27:35;;;;;;;59.78;28.75;;;1.20;99.90;;;;;;5091595;28;20469;-72
2022/01/11 03:30:01;;;;;;;55.83;28.90;;;1.20;99.90;;;;;;5092416;28;20116;-71
2022/01/11 03:32:27;;;;;;;55.72;28.15;;;1.20;99.90;;;;;;5078837;28;20029;-71
2022/01/11 03:34:53;;;;;;;50.92;27.67;;;1.20;99.90;;;;;;5089476;28;20099;-71
2022/01/11 03:37:20;;;;;;;60.88;29.77;;;1.20;99.90;;;;;;5090922;28;20057;-71
2022/01/11 03:39:47;;;;;;;57.33;29.95;;;1.30;99.90;;;;;;5092087;28;20396;-71
2022/01/11 03:42:12;;;;;;;58.13;28.45;;;1.30;99.90;;;;;;5091887;28;20032;-71
2022/01/11 03:44:38;;;;;;;54.38;28.80;;;1.30;99.90;;;;;;5092613;28;20036;-71
2022/01/11 03:47:04;;;;;;;58.00;28.90;;;1.30;99.90;;;;;;5092500;28;20024;-71
2022/01/11 03:49:30;;;;;;;59.83;27.70;;;1.30;99.90;;;;;;5091109;28;20080;-71
2022/01/11 03:51:56;;;;;;;57.88;29.27;;;1.30;99.90;;;;;;5092726;28;20428;-71
2022/01/11 03:54:42;;;;;;;57.13;29.13;;;1.30;99.90;;;;;;5091684;28;20039;-70
2022/01/11 03:57:07;;;;;;;51.63;26.55;;;1.30;99.90;;;;;;5092184;28;20051;-70
2022/01/11 03:59:33;;;;;;;56.78;27.02;;;1.30;99.90;;;;;;5091745;28;20492;-70
2022/01/11 04:01:59;;;;;;;51.38;27.10;;;1.20;99.90;;;;;;5092188;28;20101;-70
2022/01/11 04:04:26;;;;;;;67.72;29.67;;;1.20;99.90;;;;;;5091857;28;20456;-70
2022/01/11 04:06:52;;;;;;;65.47;29.88;;;1.20;99.90;;;;;;5092038;28;20050;-70
2022/01/11 04:09:18;;;;;;;60.42;29.95;;;1.20;99.90;;;;;;5091025;28;20500;-69
2022/01/11 04:11:43;;;;;;;66.63;32.53;;;1.10;99.90;;;;;;5091929;28;20380;-70
2022/01/11 04:14:09;;;;;;;66.88;31.52;;;1.10;99.90;;;;;;5091686;28;20047;-71
2022/01/11 04:16:34;;;;;;;59.40;29.92;;;1.10;99.90;;;;;;5091504;28;20092;-70
2022/01/11 04:19:00;;;;;;;58.90;29.92;;;1.20;99.90;;;;;;5092037;28;20024;-70
2022/01/11 04:21:26;;;;;;;65.43;32.05;;;1.20;99.90;;;;;;5091311;28;20028;-70
2022/01/11 04:23:53;;;;;;;68.40;30.83;;;1.20;99.90;;;;;;5091447;28;20315;-70
2022/01/11 04:26:19;;;;;;;63.03;30.60;;;1.20;99.90;;;;;;5090829;28;20435;-70
2022/01/11 04:28:44;;;;;;;64.50;30.77;;;1.20;99.90;;;;;;5073060;28;20028;-70
2022/01/11 04:31:10;;;;;;;58.30;29.50;;;1.20;99.90;;;;;;5089713;28;20109;-70
2022/01/11 04:33:36;;;;;;;59.10;29.33;;;1.20;99.90;;;;;;5078561;28;20467;-71
2022/01/11 04:36:02;;;;;;;61.80;31.00;;;1.10;99.90;;;;;;5091648;28;20049;-71
2022/01/11 04:38:30;;;;;;;57.50;29.27;;;1.10;99.90;;;;;;5091077;28;20032;-70
2022/01/11 04:40:57;;;;;;;57.80;29.15;;;1.10;99.90;;;;;;5091472;28;20024;-70
2022/01/11 04:43:22;;;;;;;56.00;29.90;;;1.10;99.90;;;;;;5090732;28;20370;-70
2022/01/11 04:45:48;;;;;;;56.22;30.08;;;1.10;99.90;;;;;;5091360;28;20085;-71
2022/01/11 04:48:15;;;;;;;59.80;30.33;;;1.00;99.90;;;;;;5090682;28;20504;-70
2022/01/11 04:50:41;;;;;;;61.88;30.58;;;1.00;99.90;;;;;;5091888;28;20039;-71
2022/01/11 04:53:07;;;;;;;59.47;30.77;;;1.00;99.90;;;;;;5091804;28;20027;-70
2022/01/11 04:55:33;;;;;;;62.65;30.80;;;1.00;99.90;;;;;;5090517;28;20020;-70
2022/01/11 04:57:59;;;;;;;61.92;30.60;;;1.00;99.90;;;;;;5091429;28;20341;-70
2022/01/11 05:00:26;;;;;;;63.38;31.65;;;1.10;99.90;;;;;;5090426;28;20067;-71
2022/01/11 05:02:52;;;;;;;64.95;32.38;;;1.10;99.90;;;;;;5091259;28;20020;-71
2022/01/11 05:05:17;;;;;;;65.70;32.17;;;1.10;99.90;;;;;;5090826;28;20117;-71
2022/01/11 05:07:45;;;;;;;55.92;30.15;;;1.20;99.90;;;;;;5091315;28;20032;-71
2022/01/11 05:10:12;;;;;;;55.30;29.00;;;1.20;99.90;;;;;;5091099;28;20044;-71
2022/01/11 05:12:38;;;;;;;57.75;28.95;;;1.20;99.90;;;;;;5091013;28;20032;-71
2022/01/11 05:15:09;;;;;;;57.25;29.40;;;1.20;99.90;;;;;;5091189;28;20024;-71
2022/01/11 05:17:35;;;;;;;55.33;29.40;;;1.30;99.90;;;;;;5090898;28;20058;-70
2022/01/11 05:20:01;;;;;;;60.85;30.63;;;1.20;99.90;;;;;;5091090;28;20032;-70
2022/01/11 05:22:26;;;;;;;55.38;27.17;;;1.20;99.90;;;;;;5090561;28;20024;-71
2022/01/11 05:24:52;;;;;;;58.90;27.55;;;1.30;99.90;;;;;;5090885;28;20028;-71
2022/01/11 05:27:18;;;;;;;56.90;27.98;;;1.30;99.90;;;;;;5090189;28;20024;-72
2022/01/11 05:29:43;;;;;;;54.35;26.13;;;1.40;99.90;;;;;;5090558;28;20047;-71
2022/01/11 05:32:09;;;;;;;54.33;27.25;;;1.40;99.90;;;;;;5080796;28;20082;-71
2022/01/11 05:34:34;;;;;;;55.28;27.05;;;1.40;99.90;;;;;;5085347;28;20081;-71
2022/01/11 05:37:00;;;;;;;51.83;28.73;;;1.50;99.90;;;;;;5091083;28;20499;-71
2022/01/11 05:39:26;;;;;;;55.15;27.95;;;1.50;99.90;;;;;;5090306;28;20028;-70
2022/01/11 05:41:51;;;;;;;54.05;27.02;;;1.40;99.90;;;;;;5091414;28;20031;-71
2022/01/11 05:44:17;;;;;;;53.92;27.00;;;1.50;99.90;;;;;;5090953;28;20244;-70
2022/01/11 05:46:43;;;;;;;60.38;30.00;;;1.40;99.90;;;;;;5091516;28;20057;-70
2022/01/11 05:49:09;;;;;;;52.83;28.25;;;1.50;99.90;;;;;;5091282;28;20052;-70
2022/01/11 05:51:35;;;;;;;60.65;29.38;;;1.50;99.90;;;;;;5091297;28;20024;-70
2022/01/11 05:54:00;;;;;;;52.65;27.83;;;1.50;99.90;;;;;;5091425;28;20066;-70
2022/01/11 05:56:27;;;;;;;50.78;26.80;;;1.50;99.90;;;;;;5090981;28;20035;-71
2022/01/11 05:58:52;;;;;;;58.08;28.52;;;1.40;99.90;;;;;;5090938;28;20384;-70
2022/01/11 06:01:18;;;;;;;56.08;26.02;;;1.40;99.90;;;;;;5090858;28;20024;-70
2022/01/11 06:03:44;;;;;;;54.58;28.92;;;1.40;99.90;;;;;;5090707;28;20453;-70
2022/01/11 06:06:10;;;;;;;53.38;28.35;;;1.40;99.90;;;;;;5091837;28;20107;-71
2022/01/11 06:08:36;;;;;;;52.78;28.15;;;1.40;99.90;;;;;;5092079;28;20028;-71
2022/01/11 06:11:02;;;;;;;62.30;28.83;;;1.40;99.90;;;;;;5091172;28;20028;-71
2022/01/11 06:13:27;;;;;;;59.47;28.20;;;1.40;99.90;;;;;;5092132;28;20352;-70
2022/01/11 06:15:53;;;;;;;54.38;28.33;;;1.40;99.90;;;;;;5094581;28;20103;-70
2022/01/11 06:18:18;;;;;;;52.85;27.38;;;1.40;99.90;;;;;;5094207;28;20024;-70
2022/01/11 06:20:45;;;;;;;59.53;29.63;;;1.30;99.90;;;;;;5094283;28;20042;-70
2022/01/11 06:23:10;;;;;;;64.25;28.52;;;1.30;99.90;;;;;;5077662;28;20119;-71
2022/01/11 06:25:37;;;;;;;59.55;31.20;;;1.30;99.90;;;;;;5075125;28;20508;-70
2022/01/11 06:28:03;;;;;;;58.17;29.42;;;1.40;99.90;;;;;;5093762;28;20035;-70
2022/01/11 06:30:29;;;;;;;64.57;30.45;;;1.40;99.90;;;;;;5093266;28;20032;-69
2022/01/11 06:32:56;;;;;;;62.78;30.33;;;1.40;99.90;;;;;;5078486;28;20453;-70
2022/01/11 06:35:23;;;;;;;63.90;30.58;;;1.40;99.90;;;;;;5093622;28;20099;-70
2022/01/11 06:37:49;;;;;;;61.78;30.60;;;1.30;99.90;;;;;;5094255;28;20025;-70
2022/01/11 06:40:17;;;;;;;63.13;29.63;;;1.40;99.90;;;;;;5093721;28;20032;-69
2022/01/11 06:42:44;;;;;;;68.75;31.60;;;1.30;99.90;;;;;;5094024;28;20032;-69
2022/01/11 06:45:11;;;;;;;61.45;29.17;;;1.30;99.90;;;;;;5077415;28;20107;-70
2022/01/11 06:47:37;;;;;;;60.22;30.60;;;1.30;99.90;;;;;;5093131;28;20024;-71
2022/01/11 06:50:03;;;;;;;62.15;30.73;;;1.30;99.90;;;;;;5093986;28;20028;-70
2022/01/11 06:52:29;;;;;;;67.07;31.45;;;1.30;99.90;;;;;;5093473;28;20055;-71
2022/01/11 06:54:54;;;;;;;55.65;30.30;;;1.30;99.90;;;;;;5093890;28;20028;-71
2022/01/11 06:57:20;;;;;;;63.97;32.28;;;1.20;99.90;;;;;;5093590;28;20440;-70
2022/01/11 06:59:45;;;;;;;59.78;30.17;;;1.20;99.90;;;;;;5093464;28;20415;-69
2022/01/11 07:02:11;;;;;;;62.63;31.02;;;1.20;99.90;;;;;;5093399;28;20036;-72
2022/01/11 07:04:37;;;;;;;58.42;31.02;;;1.20;99.90;;;;;;5093190;28;20032;-71
2022/01/11 07:07:05;;;;;;;64.18;32.15;;;1.20;99.90;;;;;;5093849;28;20115;-71
2022/01/11 07:09:31;;;;;;;57.72;30.48;;;1.20;99.90;;;;;;5089962;28;20036;-71
2022/01/11 07:11:57;;;;;;;66.68;30.10;;;1.20;99.90;;;;;;5093133;28;20061;-72
2022/01/11 07:14:22;;;;;;;64.03;31.05;;;1.20;99.90;;;;;;5092842;28;20043;-71
2022/01/11 07:16:49;;;;;;;61.58;31.75;;;1.20;99.90;;;;;;5093128;28;20077;-71
2022/01/11 07:19:18;;;;;;;62.63;30.85;;;1.20;99.90;;;;;;5092601;28;20028;-72
2022/01/11 07:21:45;;;;;;;65.13;33.60;;;1.20;99.90;;;;;;5092651;28;20426;-70
2022/01/11 07:24:12;;;;;;;71.18;33.05;;;1.30;99.90;;;;;;5091658;28;20024;-71
2022/01/11 07:26:38;;;;;;;63.97;32.65;;;1.40;99.90;;;;;;5092045;28;20118;-71
2022/01/11 07:29:05;;;;;;;64.22;32.22;;;1.40;99.90;;;;;;5092577;28;20082;-72
2022/01/11 07:31:32;;;;;;;61.20;32.28;;;1.50;99.90;;;;;;5092724;28;20084;-72
2022/01/11 07:33:58;;;;;;;72.38;31.30;;;1.50;99.90;;;;;;5092815;28;20032;-72
2022/01/11 07:36:24;;;;;;;63.65;30.65;;;1.50;99.90;;;;;;5092648;28;20024;-72
2022/01/11 07:38:51;;;;;;;59.17;31.10;;;1.50;99.90;;;;;;5091336;28;20046;-71
2022/01/11 07:41:17;;;;;;;66.03;30.80;;;1.50;99.90;;;;;;5091648;28;20032;-71
2022/01/11 07:43:43;;;;;;;56.38;29.40;;;1.50;99.90;;;;;;5093037;28;20099;-72
2022/01/11 07:46:09;;;;;;;62.25;30.27;;;1.50;99.90;;;;;;5092504;28;20099;-72
2022/01/11 07:48:34;;;;;;;62.78;31.55;;;1.50;99.90;;;;;;5092340;28;20062;-71
2022/01/11 07:51:00;;;;;;;52.88;28.77;;;1.50;99.90;;;;;;5092889;28;20102;-72
2022/01/11 07:53:25;;;;;;;60.05;30.75;;;1.50;99.90;;;;;;5092316;28;20024;-71
2022/01/11 07:55:51;;;;;;;56.45;28.35;;;1.60;99.90;;;;;;5092828;28;20347;-72
2022/01/11 07:58:17;;;;;;;51.97;28.25;;;1.60;99.90;;;;;;5092313;28;20024;-71
2022/01/11 08:00:42;;;;;;;52.95;29.58;;;1.60;99.90;;;;;;5092700;28;20077;-72
2022/01/11 08:03:09;;;;;;;61.45;30.17;;;1.70;99.90;;;;;;5092919;28;20028;-72
2022/01/11 08:05:34;;;;;;;53.63;27.90;;;1.70;99.90;;;;;;5092268;28;20024;-72
2022/01/11 08:08:00;;;;;;;52.53;27.13;;;1.80;99.90;;;;;;5092877;28;20033;-72
2022/01/11 08:10:26;;;;;;;53.60;27.92;;;1.80;99.90;;;;;;5090822;28;20032;-71
2022/01/11 08:12:52;;;;;;;52.30;28.02;;;1.80;99.90;;;;;;5092856;28;20032;-72
2022/01/11 08:15:18;;;;;;;57.80;29.25;;;1.90;99.90;;;;;;5092131;28;20031;-73
2022/01/11 08:17:43;;;;;;;54.25;28.73;;;1.90;99.90;;;;;;5092194;28;20491;-72
2022/01/11 08:20:09;;;;;;;53.13;27.30;;;1.90;99.90;;;;;;5092437;28;20032;-72
2022/01/11 08:22:35;;;;;;;50.97;26.23;;;2.00;99.90;;;;;;5091800;28;20028;-72
2022/01/11 08:25:01;;;;;;;49.90;26.75;;;2.00;99.90;;;;;;5092294;28;20110;-72
2022/01/11 08:27:27;;;;;;;51.03;25.95;;;2.10;99.90;;;;;;5091791;28;20108;-71
2022/01/11 08:29:52;;;;;;;56.00;26.45;;;2.10;99.90;;;;;;5091875;28;20028;-72
2022/01/11 08:32:18;;;;;;;49.80;25.52;;;2.10;99.90;;;;;;5092136;28;20522;-72
2022/01/11 08:34:44;;;;;;;49.78;26.40;;;2.10;99.90;;;;;;5091237;28;20024;-72
2022/01/11 08:37:09;;;;;;;50.55;26.58;;;2.20;99.90;;;;;;5091413;28;20063;-72
2022/01/11 08:39:36;;;;;;;40.15;24.95;;;2.20;99.90;;;;;;5082334;28;20111;-72
2022/01/11 08:42:02;;;;;;;47.80;25.17;;;2.20;99.90;;;;;;5071025;28;20067;-72
2022/01/11 08:44:28;;;;;;;48.50;24.38;;;2.20;99.90;;;;;;5070911;28;20043;-72
2022/01/11 08:46:54;;;;;;;46.80;25.42;;;2.20;99.90;;;;;;5076247;28;20028;-72
2022/01/11 08:49:21;;;;;;;41.40;24.35;;;2.20;99.90;;;;;;5090512;28;20048;-72
2022/01/11 08:51:47;;;;;;;44.20;24.33;;;2.20;99.90;;;;;;5090680;28;20055;-72
2022/01/11 08:54:14;;;;;;;50.85;26.35;;;2.30;99.90;;;;;;5091340;28;20040;-72
2022/01/11 08:56:40;;;;;;;46.60;26.25;;;2.30;99.90;;;;;;5090180;28;20032;-71
2022/01/11 08:59:06;;;;;;;50.17;28.40;;;2.40;99.90;;;;;;5090810;28;20468;-72
2022/01/11 09:01:34;;;;;;;46.53;24.50;;;2.40;99.90;;;;;;5090056;28;20028;-72
2022/01/11 09:04:00;;;;;;;39.80;23.15;;;2.50;99.90;;;;;;5091132;28;20028;-72
2022/01/11 09:06:26;;;;;;;46.03;23.80;;;2.60;99.90;;;;;;5090368;28;20024;-72
2022/01/11 09:08:51;;;;;;;47.45;24.75;;;2.70;99.90;;;;;;5090585;28;20027;-71
2022/01/11 09:11:17;;;;;;;38.65;22.55;;;2.70;99.90;;;;;;5094759;28;20053;-72
2022/01/11 09:13:43;;;;;;;39.78;20.98;;;2.80;99.90;;;;;;5090845;28;20043;-71
2022/01/11 09:16:11;;;;;;;37.45;21.13;;;2.80;99.90;;;;;;5091072;28;20028;-71
2022/01/11 09:18:37;;;;;;;39.63;21.80;;;2.80;99.90;;;;;;5091030;28;20161;-71
2022/01/11 09:21:03;;;;;;;40.20;22.98;;;2.90;99.90;;;;;;5091339;28;20133;-72
2022/01/11 09:23:29;;;;;;;39.58;22.42;;;2.90;99.90;;;;;;5090652;28;20016;-71
2022/01/11 09:25:55;;;;;;;38.80;21.48;;;2.90;99.90;;;;;;5090156;28;20035;-71
2022/01/11 09:28:22;;;;;;;37.95;21.85;;;3.00;99.90;;;;;;5089428;28;20024;-70
2022/01/11 09:30:49;;;;;;;41.40;21.63;;;3.00;99.90;;;;;;5091041;28;20047;-71
2022/01/11 09:33:14;;;;;;;32.78;20.58;;;3.10;99.90;;;;;;5091237;28;20024;-71
2022/01/11 09:35:40;;;;;;;38.08;21.38;;;3.00;99.90;;;;;;5090398;28;20028;-72
2022/01/11 09:38:06;;;;;;;39.22;21.30;;;3.00;99.90;;;;;;5091364;28;20465;-73
2022/01/11 09:40:32;;;;;;;37.72;22.38;;;3.00;99.90;;;;;;5074081;28;20028;-71
2022/01/11 09:42:58;;;;;;;37.40;22.30;;;3.10;99.90;;;;;;5070861;28;20032;-72
2022/01/11 09:45:24;;;;;;;40.90;22.30;;;3.10;99.90;;;;;;5070027;28;20032;-73
2022/01/11 09:47:49;;;;;;;39.55;21.98;;;3.20;99.90;;;;;;5071046;28;20049;-72
2022/01/11 09:50:16;;;;;;;40.25;21.52;;;3.30;99.90;;;;;;5074721;28;20044;-72
2022/01/11 09:52:42;;;;;;;41.67;21.70;;;3.20;99.90;;;;;;5073889;28;20274;-72
2022/01/11 09:55:12;;;;;;;35.53;20.05;;;3.40;99.90;;;;;;5074359;28;20028;-72
2022/01/11 09:57:39;;;;;;;37.03;21.67;;;3.30;99.90;;;;;;5074036;28;20050;-72
2022/01/11 10:00:06;;;;;;;40.65;20.75;;;3.30;99.90;;;;;;5074351;28;20277;-72
2022/01/11 10:02:32;;;;;;;41.03;21.80;;;3.40;99.90;;;;;;5074370;28;20043;-72
2022/01/11 10:05:01;;;;;;;42.60;21.98;;;3.40;99.90;;;;;;5074914;28;20474;-72
2022/01/11 10:07:31;;;;;;;34.80;20.80;;;3.50;99.90;;;;;;5074469;28;20021;-73
2022/01/11 10:09:58;;;;;;;33.00;20.65;;;3.50;99.90;;;;;;5083799;28;20040;-73
2022/01/11 10:12:24;;;;;;;39.33;20.98;;;3.60;99.90;;;;;;5094589;28;20050;-73
2022/01/11 10:14:55;;;;;;;39.20;23.15;;;3.70;99.90;;;;;;5095233;28;20108;-73
2022/01/11 10:17:28;;;;;;;35.47;20.75;;;3.70;99.90;;;;;;5095070;28;20024;-73
2022/01/11 10:20:09;;;;;;;38.88;22.55;;;3.70;99.90;;;;;;5094927;28;20104;-73
2022/01/11 10:22:43;;;;;;;34.50;21.58;;;3.70;99.90;;;;;;5094491;28;20381;-72
2022/01/11 10:25:09;;;;;;;36.22;20.45;;;3.80;99.90;;;;;;5094665;28;20054;-73
2022/01/11 10:27:36;;;;;;;36.22;21.13;;;3.90;99.90;;;;;;5094261;28;20070;-73
2022/01/11 10:30:11;;;;;;;34.40;20.85;;;4.00;99.90;;;;;;5094538;28;20044;-73
2022/01/11 10:32:45;;;;;;;33.63;20.30;;;4.00;99.90;;;;;;5094121;28;20103;-73
2022/01/11 10:35:29;;;;;;;36.47;19.98;;;4.10;99.90;;;;;;5094628;28;20049;-73
2022/01/11 10:37:56;;;;;;;34.67;18.70;;;4.20;99.90;;;;;;5094687;28;20111;-73
2022/01/11 10:40:35;;;;;;;34.45;19.88;;;4.20;99.90;;;;;;5093885;28;20082;-72
2022/01/11 10:43:09;;;;;;;31.50;18.10;;;4.30;99.90;;;;;;5093992;28;20039;-70
2022/01/11 10:45:37;;;;;;;30.92;18.23;;;4.40;99.90;;;;;;5093710;28;20107;-70
2022/01/11 10:48:12;;;;;;;31.90;17.77;;;4.50;99.90;;;;;;5093797;28;20461;-71
2022/01/11 10:50:49;;;;;;;38.47;18.55;;;4.50;99.90;;;;;;5093749;28;20423;-71
2022/01/11 10:53:24;;;;;;;34.92;18.00;;;4.70;99.90;;;;;;5094311;28;20039;-73
2022/01/11 10:55:52;;;;;;;31.40;18.00;;;4.70;99.90;;;;;;5093349;28;20042;-72
2022/01/11 10:58:18;;;;;;;29.58;16.88;;;4.80;99.90;;;;;;5093806;28;20032;-71
2022/01/11 11:00:52;;;;;;;34.53;17.67;;;4.90;99.90;;;;;;5093167;28;20028;-72
2022/01/11 11:03:30;;;;;;;32.75;17.65;;;4.90;99.90;;;;;;5093989;28;20027;-73
2022/01/11 11:06:07;;;;;;;34.45;17.33;;;4.90;99.90;;;;;;5093709;28;20526;-73
2022/01/11 11:08:39;;;;;;;27.60;16.15;;;4.90;99.90;;;;;;5093458;28;20021;-71
2022/01/11 11:11:24;;;;;;;27.73;15.45;;;4.90;99.90;;;;;;5073160;28;20029;-73
2022/01/11 11:13:51;;;;;;;30.52;17.05;;;4.90;99.90;;;;;;5055077;28;20401;-71
2022/01/11 11:16:20;;;;;;;33.15;16.40;;;5.00;99.90;;;;;;5073558;28;20052;-72
2022/01/11 11:18:53;;;;;;;26.08;14.93;;;5.10;99.90;;;;;;5072511;28;20385;-72
2022/01/11 11:21:25;;;;;;;27.17;15.68;;;5.10;99.90;;;;;;5073568;28;20029;-72
2022/01/11 11:24:01;;;;;;;29.27;15.60;;;5.00;99.90;;;;;;5081294;28;20383;-71
2022/01/11 11:26:33;;;;;;;25.85;15.20;;;5.10;99.90;;;;;;5093735;28;20457;-72
2022/01/11 11:28:58;;;;;;;26.80;15.15;;;5.20;99.90;;;;;;5093610;28;20028;-72
2022/01/11 11:31:25;;;;;;;25.55;15.57;;;5.30;99.90;;;;;;5093218;28;20035;-73
2022/01/11 11:33:51;;;;;;;29.23;16.55;;;5.30;99.90;;;;;;5093202;28;20042;-73
2022/01/11 11:36:18;;;;;;;24.77;14.77;;;5.40;99.90;;;;;;5093473;28;20024;-72
2022/01/11 11:39:04;;;;;;;32.13;15.98;;;5.30;99.90;;;;;;5092265;28;20043;-73
2022/01/11 11:41:31;;;;;;;34.25;18.77;;;5.30;99.90;;;;;;5093216;28;20034;-73
2022/01/11 11:44:09;;;;;;;34.42;19.70;;;5.50;99.90;;;;;;5093140;28;20129;-73
2022/01/11 11:46:42;;;;;;;31.45;18.35;;;5.40;99.90;;;;;;5092611;28;20028;-72
2022/01/11 11:49:07;;;;;;;23.85;13.98;;;5.40;99.90;;;;;;5093175;28;20435;-73
2022/01/11 11:51:38;;;;;;;23.55;14.02;;;5.40;99.90;;;;;;5092469;28;20032;-72
2022/01/11 11:54:16;;;;;;;18.30;9.73;;;5.30;99.90;;;;;;5093060;28;20385;-72
2022/01/11 11:56:58;;;;;;;18.10;10.27;;;5.20;99.90;;;;;;5092569;28;20157;-73
2022/01/11 11:59:24;;;;;;;17.63;10.98;;;5.20;99.90;;;;;;5092886;28;20453;-73
2022/01/11 12:01:50;;;;;;;19.63;9.32;;;5.10;99.90;;;;;;5092171;28;20030;-73
2022/01/11 12:04:26;;;;;;;17.08;10.10;;;5.10;99.90;;;;;;5084997;28;20375;-72
2022/01/11 12:06:55;;;;;;;15.77;8.82;;;5.10;99.90;;;;;;5112458;28;20067;-72
2022/01/11 12:09:21;;;;;;;16.13;8.82;;;5.10;99.90;;;;;;5106140;28;20035;-73
2022/01/11 12:11:50;;;;;;;15.23;9.40;;;5.20;99.90;;;;;;5091056;28;20103;-73
2022/01/11 12:14:33;;;;;;;15.48;8.90;;;5.30;99.90;;;;;;5092702;28;20054;-73
2022/01/11 12:17:23;;;;;;;13.68;8.40;;;5.40;99.90;;;;;;5092455;28;20358;-72
2022/01/11 12:19:49;;;;;;;16.10;8.23;;;5.40;99.90;;;;;;5077881;28;20398;-73
2022/01/11 12:22:20;;;;;;;13.50;7.95;;;5.40;99.90;;;;;;5092393;28;20032;-73
2022/01/11 12:24:49;;;;;;;11.95;6.72;;;5.50;99.90;;;;;;5091770;28;20105;-73
2022/01/11 12:27:18;;;;;;;11.52;5.65;;;5.60;99.90;;;;;;5092604;28;20610;-72
2022/01/11 12:30:01;;;;;;;7.07;4.07;;;5.60;99.90;;;;;;5091699;28;20034;-73
2022/01/11 12:32:31;;;;;;;8.13;5.00;;;5.60;99.90;;;;;;5092125;28;20515;-73
2022/01/11 12:35:05;;;;;;;11.15;5.70;;;5.70;99.90;;;;;;5091816;28;20056;-72
2022/01/11 12:37:31;;;;;;;16.92;6.40;;;5.80;99.90;;;;;;5092081;28;20054;-72
2022/01/11 12:40:02;;;;;;;8.82;4.80;;;5.70;99.90;;;;;;5089928;28;20473;-72
2022/01/11 12:42:28;;;;;;;7.97;4.75;;;5.70;99.40;;;;;;5091942;28;20024;-72